Terminal Aerodrome Forecast
Issued by NWS

Home | Current Version | Previous Version | Text Only | Print | Product List | Glossary Off
Versions: 1 2 3 4 5 6 7 8 9 10 11 12 13 14 15

051
FTUS43 KEAX 251120
TAFSTJ
TAF
KSTJ 251120Z 2512/2612 36010KT P6SM VCSH OVC060
     FM251500 01010KT 5SM -RA OVC020
     FM251800 01010KT 4SM -RA OVC020
     FM252200 VRB03KT P6SM VCSH OVC045
     FM260500 34005KT P6SM FEW150=

USA.gov is the U.S. government's official web portal to all federal, state and local government web resources and services.